createdAt,value
2023-02-27T00:01:56.456Z,3.65
2023-02-27T00:04:23.165Z,3.71
2023-02-27T00:06:50.055Z,3.69
2023-02-27T00:09:16.659Z,3.77
2023-02-27T00:11:43.443Z,3.67
2023-02-27T00:14:10.099Z,3.75
2023-02-27T00:16:36.813Z,3.68
2023-02-27T00:19:04.896Z,3.77
2023-02-27T00:21:32.623Z,3.67
2023-02-27T00:23:59.317Z,3.69
2023-02-27T00:26:26.505Z,3.59
2023-02-27T00:28:53.254Z,3.47
2023-02-27T00:31:20.060Z,3.54
2023-02-27T00:33:46.837Z,3.49
2023-02-27T00:36:13.628Z,3.50
2023-02-27T00:38:40.735Z,3.53
2023-02-27T00:41:07.417Z,3.62
2023-02-27T00:43:34.077Z,3.55
2023-02-27T00:46:00.700Z,3.71
2023-02-27T00:48:28.461Z,3.86
2023-02-27T00:50:55.424Z,3.93
2023-02-27T00:53:22.296Z,3.84
2023-02-27T00:55:49.242Z,3.80
2023-02-27T00:58:16.532Z,3.82
2023-02-27T01:00:43.275Z,3.74
2023-02-27T01:03:09.992Z,3.58
2023-02-27T01:05:36.795Z,3.40
2023-02-27T01:08:03.576Z,3.31
2023-02-27T01:10:30.306Z,3.42
2023-02-27T01:12:58.219Z,3.08
2023-02-27T01:15:26.328Z,3.01
2023-02-27T01:17:52.975Z,3.20
2023-02-27T01:20:23.630Z,3.27
2023-02-27T01:22:50.292Z,3.20
2023-02-27T01:25:19.638Z,3.06
2023-02-27T01:27:46.254Z,3.10
2023-02-27T01:30:14.699Z,3.12
2023-02-27T01:32:41.551Z,2.81
2023-02-27T01:35:08.729Z,2.81
2023-02-27T01:37:35.470Z,2.96
2023-02-27T01:40:03.091Z,2.98
2023-02-27T01:42:29.885Z,3.02
2023-02-27T01:45:12.019Z,2.87
2023-02-27T01:47:46.225Z,2.77
2023-02-27T01:50:14.922Z,2.75
2023-02-27T01:52:44.260Z,2.87
2023-02-27T01:55:13.821Z,2.78
2023-02-27T01:57:43.172Z,2.77
2023-02-27T02:00:10.707Z,2.69
2023-02-27T02:02:43.252Z,2.77
2023-02-27T02:05:10.233Z,2.62
2023-02-27T02:07:39.839Z,2.63
2023-02-27T02:10:07.888Z,2.59
2023-02-27T02:12:39.108Z,2.57
2023-02-27T02:15:07.069Z,2.66
2023-02-27T02:17:44.045Z,2.62
2023-02-27T02:20:48.636Z,2.75
2023-02-27T02:23:21.069Z,2.71
2023-02-27T02:26:09.637Z,2.54
2023-02-27T02:28:45.479Z,2.57
2023-02-27T02:31:38.658Z,2.63
2023-02-27T02:34:27.030Z,2.72
2023-02-27T02:37:12.456Z,2.70
2023-02-27T02:40:04.688Z,2.51
2023-02-27T02:42:45.437Z,2.67
2023-02-27T02:45:40.497Z,2.59
2023-02-27T02:48:22.072Z,2.60
2023-02-27T02:51:01.216Z,2.75
2023-02-27T02:53:51.383Z,3.12
2023-02-27T02:56:26.353Z,2.88
2023-02-27T02:59:16.235Z,3.01
2023-02-27T03:01:45.786Z,2.88
2023-02-27T03:04:22.294Z,3.25
2023-02-27T03:07:02.746Z,3.35
2023-02-27T03:09:50.222Z,3.09
2023-02-27T03:12:22.161Z,3.16
2023-02-27T03:14:59.325Z,3.34
2023-02-27T03:17:58.260Z,3.13
2023-02-27T03:20:31.042Z,3.04
2023-02-27T03:23:04.900Z,2.91
2023-02-27T03:25:34.759Z,2.77
2023-02-27T03:28:08.772Z,2.84
2023-02-27T03:30:47.096Z,2.81
2023-02-27T03:33:21.544Z,2.91
2023-02-27T03:35:59.547Z,2.94
2023-02-27T03:38:35.667Z,2.95
2023-02-27T03:41:18.685Z,2.98
2023-02-27T03:43:57.587Z,2.90
2023-02-27T03:46:27.807Z,2.70
2023-02-27T03:48:54.650Z,2.67
2023-02-27T03:51:24.730Z,2.86
2023-02-27T03:54:03.352Z,2.98
2023-02-27T03:56:45.892Z,2.92
2023-02-27T03:59:14.019Z,2.69
2023-02-27T04:01:45.786Z,2.77
2023-02-27T04:04:17.560Z,2.61
2023-02-27T04:07:27.847Z,2.75
2023-02-27T04:10:12.234Z,2.75
2023-02-27T04:12:47.449Z,2.65
2023-02-27T04:15:14.132Z,2.79
2023-02-27T04:17:59.216Z,2.70
2023-02-27T04:21:23.090Z,2.63
2023-02-27T04:24:10.555Z,2.62
2023-02-27T04:26:53.405Z,2.74
2023-02-27T04:29:54.560Z,2.70
2023-02-27T04:32:46.345Z,2.66
2023-02-27T04:35:29.263Z,2.62
2023-02-27T04:38:11.744Z,2.55
2023-02-27T04:41:05.716Z,2.65
2023-02-27T04:43:34.726Z,2.71
2023-02-27T04:46:03.187Z,2.72
2023-02-27T04:48:36.526Z,2.62
2023-02-27T04:51:13.805Z,2.70
2023-02-27T04:53:49.405Z,2.62
2023-02-27T04:56:28.690Z,2.54
2023-02-27T04:59:01.735Z,2.57
2023-02-27T05:01:41.941Z,2.78
2023-02-27T05:04:25.738Z,2.51
2023-02-27T05:06:55.064Z,2.60
2023-02-27T05:09:31.180Z,2.58
2023-02-27T05:12:11.823Z,2.50
2023-02-27T05:14:52.558Z,2.51
2023-02-27T05:17:25.406Z,2.66
2023-02-27T05:19:52.300Z,2.61
2023-02-27T05:22:36.151Z,2.72
2023-02-27T05:25:11.468Z,2.75
2023-02-27T05:28:03.928Z,2.85
2023-02-27T05:30:49.312Z,2.62
2023-02-27T05:33:24.547Z,2.74
2023-02-27T05:36:08.518Z,2.95
2023-02-27T05:38:48.403Z,3.02
2023-02-27T05:41:19.854Z,3.00
2023-02-27T05:43:54.500Z,3.01
2023-02-27T05:46:26.914Z,2.83
2023-02-27T05:49:01.586Z,2.86
2023-02-27T05:51:33.328Z,2.78
2023-02-27T05:54:10.391Z,2.90
2023-02-27T05:56:39.444Z,2.78
2023-02-27T05:59:17.607Z,2.85
2023-02-27T06:01:46.291Z,2.78
2023-02-27T06:04:13.253Z,2.76
2023-02-27T06:06:41.910Z,2.82
2023-02-27T06:09:09.458Z,2.79
2023-02-27T06:11:36.143Z,2.72
2023-02-27T06:14:03.340Z,2.81
2023-02-27T06:16:30.557Z,3.02
2023-02-27T06:18:57.367Z,2.88
2023-02-27T06:21:23.977Z,2.72
2023-02-27T06:23:50.653Z,2.77
2023-02-27T06:26:17.875Z,2.94
2023-02-27T06:28:44.554Z,3.07
2023-02-27T06:31:11.382Z,3.21
2023-02-27T06:33:38.374Z,3.13
2023-02-27T06:36:05.328Z,3.13
2023-02-27T06:38:32.172Z,3.00
2023-02-27T06:40:59.092Z,2.86
2023-02-27T06:43:26.340Z,2.66
2023-02-27T06:45:56.320Z,2.64
2023-02-27T06:48:23.040Z,2.84
2023-02-27T06:50:53.842Z,2.73
2023-02-27T06:53:20.974Z,2.88
2023-02-27T06:55:47.637Z,2.94
2023-02-27T06:58:14.251Z,2.98
2023-02-27T07:00:41.052Z,3.09
2023-02-27T07:03:07.737Z,3.23
2023-02-27T07:05:34.425Z,3.42
2023-02-27T07:08:02.279Z,3.47
2023-02-27T07:10:29.114Z,3.53
2023-02-27T07:12:55.757Z,3.66
2023-02-27T07:15:22.729Z,4.12
2023-02-27T07:17:49.443Z,4.13
2023-02-27T07:20:16.102Z,4.19
2023-02-27T07:22:42.771Z,4.41
2023-02-27T07:25:09.867Z,4.57
2023-02-27T07:27:36.601Z,4.64
2023-02-27T07:30:03.665Z,4.44
2023-02-27T07:32:30.534Z,4.90
2023-02-27T07:34:57.178Z,5.03
2023-02-27T07:37:26.995Z,5.06
2023-02-27T07:39:54.637Z,5.60
2023-02-27T07:42:21.391Z,5.53
2023-02-27T07:44:48.262Z,8.11
2023-02-27T07:47:14.978Z,6.40
2023-02-27T07:49:41.578Z,6.12
2023-02-27T07:52:08.358Z,6.07
2023-02-27T07:54:37.537Z,6.79
2023-02-27T07:57:05.424Z,7.16
2023-02-27T07:59:32.787Z,6.98
2023-02-27T08:01:59.703Z,7.81
2023-02-27T08:04:26.447Z,7.91
2023-02-27T08:06:53.202Z,8.40
2023-02-27T08:09:19.929Z,8.17
2023-02-27T08:11:48.880Z,8.87
2023-02-27T08:14:15.959Z,9.24
2023-02-27T08:16:42.705Z,8.45
2023-02-27T08:19:09.408Z,8.61
2023-02-27T08:21:36.056Z,9.13
2023-02-27T08:24:04.381Z,9.79
2023-02-27T08:26:31.340Z,9.11
2023-02-27T08:28:58.140Z,8.68
2023-02-27T08:31:24.968Z,9.19
2023-02-27T08:34:01.151Z,10.11
2023-02-27T08:36:36.472Z,9.80
2023-02-27T08:39:03.285Z,11.44
2023-02-27T08:41:29.947Z,10.03
2023-02-27T08:43:56.669Z,10.02
2023-02-27T08:46:23.318Z,10.74
2023-02-27T08:48:50.009Z,10.80
2023-02-27T08:51:16.739Z,11.93
2023-02-27T08:53:43.397Z,11.44
2023-02-27T08:56:10.204Z,10.86
2023-02-27T08:58:36.988Z,10.93
2023-02-27T09:01:04.012Z,10.43
2023-02-27T09:03:31.609Z,11.99
2023-02-27T09:05:58.518Z,12.46
2023-02-27T09:08:25.446Z,10.96
2023-02-27T09:10:56.115Z,12.08
2023-02-27T09:13:22.788Z,11.46
2023-02-27T09:15:49.532Z,11.16
2023-02-27T09:18:16.147Z,12.58
2023-02-27T09:20:42.839Z,11.90
2023-02-27T09:23:09.622Z,13.29
2023-02-27T09:25:36.655Z,12.39
2023-02-27T09:28:03.384Z,10.85
2023-02-27T09:30:30.284Z,11.91
2023-02-27T09:32:57.146Z,12.91
2023-02-27T09:35:23.942Z,13.49
2023-02-27T09:37:50.713Z,13.22
2023-02-27T09:40:25.368Z,13.75
2023-02-27T09:42:57.081Z,12.81
2023-02-27T09:45:26.749Z,12.23
2023-02-27T09:47:58.969Z,12.30
2023-02-27T09:50:40.959Z,12.36
2023-02-27T09:53:15.749Z,13.28
2023-02-27T09:55:43.570Z,13.25
2023-02-27T09:58:25.121Z,11.79
2023-02-27T10:01:03.717Z,12.74
2023-02-27T10:03:48.585Z,12.61
2023-02-27T10:06:38.960Z,11.37
2023-02-27T10:09:23.109Z,11.82
2023-02-27T10:11:57.620Z,13.07
2023-02-27T10:14:34.247Z,12.84
2023-02-27T10:17:06.307Z,12.98
2023-02-27T10:19:37.619Z,12.74
2023-02-27T10:22:10.090Z,11.99
2023-02-27T10:24:46.201Z,12.57
2023-02-27T10:27:19.145Z,11.58
2023-02-27T10:29:46.211Z,11.52
2023-02-27T10:32:12.829Z,10.93
2023-02-27T10:34:42.109Z,11.16
2023-02-27T10:37:14.260Z,11.95
2023-02-27T10:39:55.468Z,12.35
2023-02-27T10:42:25.744Z,12.70
2023-02-27T10:44:53.799Z,12.82
2023-02-27T10:47:24.884Z,12.68
2023-02-27T10:49:53.248Z,12.22
2023-02-27T10:52:20.622Z,12.69
2023-02-27T10:54:47.845Z,11.91
2023-02-27T10:57:42.542Z,12.11
2023-02-27T11:00:27.043Z,12.47
2023-02-27T11:02:54.655Z,12.31
2023-02-27T11:05:34.870Z,12.47
2023-02-27T11:08:21.923Z,12.63
2023-02-27T11:11:04.393Z,11.26
2023-02-27T11:13:38.157Z,12.10
2023-02-27T11:16:15.011Z,12.34
2023-02-27T11:18:44.473Z,12.76
2023-02-27T11:21:20.415Z,12.75
2023-02-27T11:23:59.169Z,12.36
2023-02-27T11:26:36.712Z,11.44
2023-02-27T11:29:18.288Z,11.75
2023-02-27T11:31:48.496Z,12.43
2023-02-27T11:34:21.708Z,12.17
2023-02-27T11:36:51.665Z,11.87
2023-02-27T11:39:26.625Z,11.57
2023-02-27T11:41:55.404Z,11.50
2023-02-27T11:44:49.766Z,11.57
2023-02-27T11:47:20.433Z,12.33
2023-02-27T11:49:58.362Z,12.04
2023-02-27T11:53:04.065Z,12.27
2023-02-27T11:55:32.313Z,11.83
2023-02-27T11:58:10.429Z,11.52
2023-02-27T12:00:45.506Z,11.63
2023-02-27T12:03:41.270Z,11.95
2023-02-27T12:06:19.245Z,12.15
2023-02-27T12:08:54.757Z,12.68
2023-02-27T12:11:29.881Z,12.24
2023-02-27T12:14:06.285Z,12.33
2023-02-27T12:16:45.545Z,12.23
2023-02-27T12:19:18.666Z,12.59
2023-02-27T12:21:58.973Z,13.13
2023-02-27T12:24:36.581Z,12.75
2023-02-27T12:27:32.849Z,13.13
2023-02-27T12:30:07.679Z,12.34
2023-02-27T12:32:50.386Z,12.99
2023-02-27T12:35:24.581Z,12.79
2023-02-27T12:37:52.245Z,12.93
2023-02-27T12:40:21.045Z,12.25
2023-02-27T12:43:29.253Z,12.46
2023-02-27T12:46:34.140Z,13.27
2023-02-27T12:49:11.331Z,12.62
2023-02-27T12:51:57.859Z,12.68
2023-02-27T12:54:27.599Z,12.91
2023-02-27T12:57:48.443Z,13.63
2023-02-27T13:00:19.389Z,13.82
2023-02-27T13:02:48.737Z,12.66
2023-02-27T13:05:32.416Z,12.61
2023-02-27T13:08:30.868Z,12.26
2023-02-27T13:11:23.415Z,12.50
2023-02-27T13:13:55.145Z,12.60
2023-02-27T13:16:37.564Z,12.46
2023-02-27T13:19:15.761Z,12.29
2023-02-27T13:21:55.015Z,12.14
2023-02-27T13:24:23.908Z,12.09
2023-02-27T13:26:54.059Z,12.59
2023-02-27T13:29:22.565Z,12.38
2023-02-27T13:31:50.113Z,12.22
2023-02-27T13:34:26.372Z,12.27
2023-02-27T13:37:01.431Z,11.83
2023-02-27T13:39:47.051Z,12.49
2023-02-27T13:42:26.145Z,12.28
2023-02-27T13:45:04.066Z,12.09
2023-02-27T13:47:30.737Z,12.17
2023-02-27T13:50:21.376Z,12.11
2023-02-27T13:52:48.457Z,12.04
2023-02-27T13:55:30.938Z,11.93
2023-02-27T13:58:00.042Z,12.15
2023-02-27T14:00:30.041Z,12.21
2023-02-27T14:03:05.334Z,11.62
2023-02-27T14:05:42.376Z,12.14
2023-02-27T14:08:11.877Z,11.85
2023-02-27T14:10:41.470Z,12.14
2023-02-27T14:13:46.357Z,11.53
2023-02-27T14:16:41.927Z,11.62
2023-02-27T14:19:11.264Z,11.74
2023-02-27T14:22:15.983Z,11.75
2023-02-27T14:25:01.613Z,11.58
2023-02-27T14:27:36.305Z,11.93
2023-02-27T14:30:07.773Z,11.67
2023-02-27T14:32:37.056Z,11.67
2023-02-27T14:35:06.108Z,11.66
2023-02-27T14:37:35.609Z,11.02
2023-02-27T14:40:06.096Z,11.34
2023-02-27T14:42:46.482Z,11.05
2023-02-27T14:45:24.617Z,11.69
2023-02-27T14:47:52.888Z,11.34
2023-02-27T14:50:37.321Z,12.00
2023-02-27T14:53:05.499Z,11.99
2023-02-27T14:55:35.274Z,11.95
2023-02-27T14:58:08.072Z,12.11
2023-02-27T15:00:50.457Z,11.77
2023-02-27T15:03:28.688Z,11.50
2023-02-27T15:05:59.530Z,11.33
2023-02-27T15:08:33.642Z,11.50
2023-02-27T15:11:02.415Z,11.34
2023-02-27T15:13:29.080Z,11.18
2023-02-27T15:16:23.410Z,11.67
2023-02-27T15:18:55.433Z,11.59
2023-02-27T15:21:25.546Z,11.84
2023-02-27T15:23:57.577Z,11.82
2023-02-27T15:26:24.820Z,11.51
2023-02-27T15:28:51.635Z,11.71
2023-02-27T15:31:22.633Z,11.51
2023-02-27T15:33:50.698Z,11.81
2023-02-27T15:36:24.204Z,11.83
2023-02-27T15:39:15.315Z,11.64
2023-02-27T15:41:45.749Z,12.06
2023-02-27T15:44:14.249Z,11.62
2023-02-27T15:46:41.659Z,11.18
2023-02-27T15:49:16.941Z,11.36
2023-02-27T15:51:44.240Z,11.24
2023-02-27T15:54:11.601Z,11.02
2023-02-27T15:56:39.795Z,10.88
2023-02-27T15:59:07.255Z,11.16
2023-02-27T16:01:38.905Z,11.33
2023-02-27T16:04:14.231Z,11.40
2023-02-27T16:06:47.139Z,11.00
2023-02-27T16:09:24.823Z,10.79
2023-02-27T16:12:10.904Z,10.76
2023-02-27T16:14:45.192Z,10.53
2023-02-27T16:17:32.901Z,10.91
2023-02-27T16:20:21.426Z,10.93
2023-02-27T16:23:21.392Z,11.20
2023-02-27T16:26:06.716Z,10.71
2023-02-27T16:28:40.757Z,10.75
2023-02-27T16:31:24.901Z,10.46
2023-02-27T16:33:53.426Z,10.65
2023-02-27T16:36:23.195Z,10.38
2023-02-27T16:38:50.302Z,10.25
2023-02-27T16:41:19.250Z,10.38
2023-02-27T16:43:47.327Z,10.37
2023-02-27T16:46:20.301Z,10.31
2023-02-27T16:48:55.750Z,10.28
2023-02-27T16:51:24.990Z,10.20
2023-02-27T16:53:53.734Z,10.31
2023-02-27T16:56:35.724Z,10.38
2023-02-27T16:59:04.054Z,10.33
2023-02-27T17:01:33.570Z,10.09
2023-02-27T17:04:00.899Z,10.10
2023-02-27T17:06:28.141Z,10.15
2023-02-27T17:08:56.107Z,10.05
2023-02-27T17:11:23.022Z,10.12
2023-02-27T17:13:49.643Z,9.96
2023-02-27T17:16:16.397Z,9.75
2023-02-27T17:18:43.068Z,9.80
2023-02-27T17:21:09.763Z,9.75
2023-02-27T17:23:36.391Z,9.66
2023-02-27T17:26:03.274Z,9.72
2023-02-27T17:28:29.943Z,9.86
2023-02-27T17:30:56.823Z,9.75
2023-02-27T17:33:23.564Z,9.71
2023-02-27T17:35:51.470Z,9.94
2023-02-27T17:38:18.137Z,10.11
2023-02-27T17:40:44.806Z,10.30
2023-02-27T17:43:11.566Z,10.14
2023-02-27T17:45:38.554Z,10.07
2023-02-27T17:48:05.450Z,9.81
2023-02-27T17:50:32.455Z,9.96
2023-02-27T17:52:59.067Z,9.73
2023-02-27T17:55:25.855Z,10.00
2023-02-27T17:57:52.544Z,9.74
2023-02-27T18:00:19.661Z,9.62
2023-02-27T18:02:46.387Z,9.43
2023-02-27T18:05:13.149Z,9.48
2023-02-27T18:07:39.891Z,9.52
2023-02-27T18:10:09.123Z,9.28
2023-02-27T18:12:37.023Z,9.60
2023-02-27T18:15:05.892Z,9.30
2023-02-27T18:17:32.764Z,9.16
2023-02-27T18:19:59.890Z,9.51
2023-02-27T18:22:26.553Z,9.09
2023-02-27T18:24:54.766Z,8.87
2023-02-27T18:27:22.384Z,9.11
2023-02-27T18:29:52.247Z,9.08
2023-02-27T18:32:19.090Z,9.11
2023-02-27T18:34:45.828Z,9.23
2023-02-27T18:37:12.532Z,9.31
2023-02-27T18:39:39.267Z,9.27
2023-02-27T18:42:06.876Z,9.53
2023-02-27T18:44:33.766Z,9.35
2023-02-27T18:47:00.539Z,9.27
2023-02-27T18:49:27.185Z,9.21
2023-02-27T18:51:53.966Z,9.21
2023-02-27T18:54:20.830Z,9.27
2023-02-27T18:56:50.848Z,9.37
2023-02-27T18:59:17.562Z,9.42
2023-02-27T19:01:44.501Z,9.44
2023-02-27T19:04:11.236Z,9.32
2023-02-27T19:06:40.990Z,9.30
2023-02-27T19:09:11.210Z,9.38
2023-02-27T19:11:38.280Z,9.12
2023-02-27T19:14:07.698Z,9.05
2023-02-27T19:16:34.867Z,9.14
2023-02-27T19:19:03.216Z,8.99
2023-02-27T19:21:29.897Z,9.08
2023-02-27T19:23:56.636Z,9.20
2023-02-27T19:26:24.482Z,9.16
2023-02-27T19:28:55.312Z,9.53
2023-02-27T19:31:24.110Z,9.60
2023-02-27T19:33:51.097Z,9.67
2023-02-27T19:36:20.934Z,9.45
2023-02-27T19:38:48.466Z,9.41
2023-02-27T19:41:16.924Z,9.10
2023-02-27T19:43:44.066Z,9.01
2023-02-27T19:46:16.955Z,9.17
2023-02-27T19:48:45.242Z,9.06
2023-02-27T19:51:13.861Z,9.22
2023-02-27T19:53:42.444Z,9.14
2023-02-27T19:56:18.626Z,9.16
2023-02-27T19:58:46.483Z,9.05
2023-02-27T20:01:13.219Z,9.12
2023-02-27T20:03:43.881Z,9.04
2023-02-27T20:06:23.193Z,8.84
2023-02-27T20:08:50.781Z,9.01
2023-02-27T20:11:19.797Z,9.66
2023-02-27T20:13:51.487Z,9.26
2023-02-27T20:16:22.106Z,8.94
2023-02-27T20:18:49.070Z,9.15
2023-02-27T20:21:21.973Z,9.24
2023-02-27T20:23:51.571Z,9.30
2023-02-27T20:26:20.098Z,9.24
2023-02-27T20:28:48.098Z,9.84
2023-02-27T20:31:21.150Z,9.65
2023-02-27T20:33:49.251Z,9.44
2023-02-27T20:36:16.492Z,9.46
2023-02-27T20:38:43.329Z,9.58
2023-02-27T20:41:15.784Z,9.37
2023-02-27T20:43:43.270Z,9.27
2023-02-27T20:46:18.227Z,9.18
2023-02-27T20:48:46.059Z,9.03
2023-02-27T20:51:21.852Z,8.87
2023-02-27T20:53:50.930Z,8.86
2023-02-27T20:56:26.793Z,9.05
2023-02-27T20:58:53.455Z,9.10
2023-02-27T21:01:21.145Z,9.22
2023-02-27T21:03:52.058Z,9.27
2023-02-27T21:06:19.096Z,9.25
2023-02-27T21:08:48.895Z,9.33
2023-02-27T21:11:18.741Z,9.33
2023-02-27T21:13:46.882Z,9.77
2023-02-27T21:16:16.191Z,9.51
2023-02-27T21:18:43.690Z,9.31
2023-02-27T21:21:22.835Z,9.05
2023-02-27T21:23:49.668Z,9.51
2023-02-27T21:26:22.249Z,9.24
2023-02-27T21:28:54.323Z,8.91
2023-02-27T21:31:23.734Z,8.96
2023-02-27T21:33:51.189Z,8.74
2023-02-27T21:36:18.418Z,8.69
2023-02-27T21:38:45.975Z,8.77
2023-02-27T21:41:13.354Z,9.05
2023-02-27T21:43:40.616Z,8.98
2023-02-27T21:46:09.131Z,8.92
2023-02-27T21:48:36.262Z,8.76
2023-02-27T21:51:04.029Z,8.51
2023-02-27T21:53:31.585Z,8.60
2023-02-27T21:56:07.323Z,8.70
2023-02-27T21:58:34.651Z,8.61
2023-02-27T22:01:01.866Z,8.71
2023-02-27T22:03:35.049Z,8.70
2023-02-27T22:06:02.055Z,8.72
2023-02-27T22:08:28.877Z,8.49
2023-02-27T22:10:59.030Z,8.62
2023-02-27T22:13:26.332Z,8.55
2023-02-27T22:15:53.887Z,8.83
2023-02-27T22:18:20.954Z,8.46
2023-02-27T22:20:47.697Z,8.54
2023-02-27T22:23:14.637Z,8.59
2023-02-27T22:25:41.320Z,8.70
2023-02-27T22:28:08.089Z,8.82
2023-02-27T22:30:34.762Z,8.59
2023-02-27T22:33:01.483Z,8.62
2023-02-27T22:35:28.275Z,8.56
2023-02-27T22:37:55.070Z,8.59
2023-02-27T22:40:21.792Z,8.92
2023-02-27T22:42:48.500Z,8.84
2023-02-27T22:45:15.435Z,8.73
2023-02-27T22:47:42.108Z,8.71
2023-02-27T22:50:09.555Z,8.65
2023-02-27T22:52:37.517Z,8.72
2023-02-27T22:55:04.559Z,8.81
2023-02-27T22:57:31.211Z,8.98
2023-02-27T22:59:57.814Z,8.65
2023-02-27T23:02:24.475Z,8.83
2023-02-27T23:04:51.231Z,8.81
2023-02-27T23:07:17.869Z,8.88
2023-02-27T23:09:44.576Z,8.87
2023-02-27T23:12:11.389Z,9.02
2023-02-27T23:14:37.984Z,8.88
2023-02-27T23:17:04.584Z,8.87
2023-02-27T23:19:32.360Z,8.87
2023-02-27T23:21:59.132Z,9.11
2023-02-27T23:24:25.788Z,8.81
2023-02-27T23:29:31.096Z,8.84
2023-02-27T23:31:57.872Z,8.75
2023-02-27T23:34:24.543Z,8.72
2023-02-27T23:36:51.457Z,8.42
2023-02-27T23:39:18.162Z,8.48
2023-02-27T23:41:44.850Z,8.54
2023-02-27T23:44:11.532Z,8.32
2023-02-27T23:46:38.436Z,8.45
2023-02-27T23:49:05.176Z,8.25
2023-02-27T23:51:33.308Z,8.20
2023-02-27T23:54:00.479Z,8.18
2023-02-27T23:56:29.791Z,8.14
2023-02-27T23:59:14.395Z,7.97
